sensor_id;sensor_type;location;lat;lon;timestamp;temperature;humidity
18225;DHT22;9237;48.590;8.854;2023-05-07T00:00:29;11.70;99.90
18225;DHT22;9237;48.590;8.854;2023-05-07T00:02:56;11.60;99.90
18225;DHT22;9237;48.590;8.854;2023-05-07T00:05:23;11.70;99.90
18225;DHT22;9237;48.590;8.854;2023-05-07T00:07:50;11.60;99.90
18225;DHT22;9237;48.590;8.854;2023-05-07T00:10:19;11.60;99.90
18225;DHT22;9237;48.590;8.854;2023-05-07T00:12:46;11.60;99.90
18225;DHT22;9237;48.590;8.854;2023-05-07T00:15:12;11.50;99.90
18225;DHT22;9237;48.590;8.854;2023-05-07T00:17:39;11.40;99.90
18225;DHT22;9237;48.590;8.854;2023-05-07T00:20:06;11.30;99.90
18225;DHT22;9237;48.590;8.854;2023-05-07T00:22:33;11.30;99.90
18225;DHT22;9237;48.590;8.854;2023-05-07T00:25:00;11.40;99.90
18225;DHT22;9237;48.590;8.854;2023-05-07T00:27:28;11.40;99.90
18225;DHT22;9237;48.590;8.854;2023-05-07T00:29:55;11.50;99.90
18225;DHT22;9237;48.590;8.854;2023-05-07T00:32:22;11.50;99.90
18225;DHT22;9237;48.590;8.854;2023-05-07T00:34:48;11.50;99.90
18225;DHT22;9237;48.590;8.854;2023-05-07T00:37:16;11.60;99.90
18225;DHT22;9237;48.590;8.854;2023-05-07T00:39:43;11.60;99.90
18225;DHT22;9237;48.590;8.854;2023-05-07T00:42:09;11.70;99.90
18225;DHT22;9237;48.590;8.854;2023-05-07T00:44:38;11.70;99.90
18225;DHT22;9237;48.590;8.854;2023-05-07T00:47:05;11.70;99.90
18225;DHT22;9237;48.590;8.854;2023-05-07T00:49:39;11.80;99.90
18225;DHT22;9237;48.590;8.854;2023-05-07T00:52:09;11.70;99.90
18225;DHT22;9237;48.590;8.854;2023-05-07T00:54:37;11.60;99.90
18225;DHT22;9237;48.590;8.854;2023-05-07T00:57:05;11.50;99.90
18225;DHT22;9237;48.590;8.854;2023-05-07T00:59:32;11.60;99.90
18225;DHT22;9237;48.590;8.854;2023-05-07T01:02:01;11.70;99.90
18225;DHT22;9237;48.590;8.854;2023-05-07T01:04:28;11.70;99.90
18225;DHT22;9237;48.590;8.854;2023-05-07T01:06:56;11.70;99.90
18225;DHT22;9237;48.590;8.854;2023-05-07T01:09:25;11.70;99.90
18225;DHT22;9237;48.590;8.854;2023-05-07T01:11:52;11.70;99.90
18225;DHT22;9237;48.590;8.854;2023-05-07T01:14:20;11.80;99.90
18225;DHT22;9237;48.590;8.854;2023-05-07T01:16:47;11.70;99.90
18225;DHT22;9237;48.590;8.854;2023-05-07T01:19:17;11.60;99.90
18225;DHT22;9237;48.590;8.854;2023-05-07T01:21:46;11.60;99.90
18225;DHT22;9237;48.590;8.854;2023-05-07T01:24:15;11.50;99.90
18225;DHT22;9237;48.590;8.854;2023-05-07T01:26:42;11.50;99.90
18225;DHT22;9237;48.590;8.854;2023-05-07T01:29:09;11.40;99.90
18225;DHT22;9237;48.590;8.854;2023-05-07T01:31:37;11.40;99.90
18225;DHT22;9237;48.590;8.854;2023-05-07T01:34:05;11.40;99.90
18225;DHT22;9237;48.590;8.854;2023-05-07T01:36:33;11.50;99.90
18225;DHT22;9237;48.590;8.854;2023-05-07T01:39:01;11.50;99.90
18225;DHT22;9237;48.590;8.854;2023-05-07T01:41:31;11.40;99.90
18225;DHT22;9237;48.590;8.854;2023-05-07T01:43:58;11.40;99.90
18225;DHT22;9237;48.590;8.854;2023-05-07T01:46:26;11.50;99.90
18225;DHT22;9237;48.590;8.854;2023-05-07T01:48:53;11.50;99.90
18225;DHT22;9237;48.590;8.854;2023-05-07T01:51:20;11.40;99.90
18225;DHT22;9237;48.590;8.854;2023-05-07T01:53:47;11.40;99.90
18225;DHT22;9237;48.590;8.854;2023-05-07T01:56:16;11.30;99.90
18225;DHT22;9237;48.590;8.854;2023-05-07T01:58:45;11.20;99.90
18225;DHT22;9237;48.590;8.854;2023-05-07T02:01:13;11.10;99.90
18225;DHT22;9237;48.590;8.854;2023-05-07T02:03:40;11.00;99.90
18225;DHT22;9237;48.590;8.854;2023-05-07T02:06:07;11.20;99.90
18225;DHT22;9237;48.590;8.854;2023-05-07T02:08:33;11.30;99.90
18225;DHT22;9237;48.590;8.854;2023-05-07T02:11:00;11.30;99.90
18225;DHT22;9237;48.590;8.854;2023-05-07T02:13:29;11.30;99.90
18225;DHT22;9237;48.590;8.854;2023-05-07T02:15:58;11.20;99.90
18225;DHT22;9237;48.590;8.854;2023-05-07T02:18:24;11.30;99.90
18225;DHT22;9237;48.590;8.854;2023-05-07T02:20:51;11.30;99.90
18225;DHT22;9237;48.590;8.854;2023-05-07T02:23:18;11.20;99.90
18225;DHT22;9237;48.590;8.854;2023-05-07T02:25:45;11.10;99.90
18225;DHT22;9237;48.590;8.854;2023-05-07T02:28:12;11.10;99.90
18225;DHT22;9237;48.590;8.854;2023-05-07T02:30:39;11.10;99.90
18225;DHT22;9237;48.590;8.854;2023-05-07T02:33:07;11.10;99.90
18225;DHT22;9237;48.590;8.854;2023-05-07T02:35:35;11.10;99.90
18225;DHT22;9237;48.590;8.854;2023-05-07T02:38:01;11.10;99.90
18225;DHT22;9237;48.590;8.854;2023-05-07T02:40:28;11.00;99.90
18225;DHT22;9237;48.590;8.854;2023-05-07T02:42:55;11.00;99.90
18225;DHT22;9237;48.590;8.854;2023-05-07T02:45:22;11.10;99.90
18225;DHT22;9237;48.590;8.854;2023-05-07T02:47:49;11.10;99.90
18225;DHT22;9237;48.590;8.854;2023-05-07T02:50:17;11.20;99.90
18225;DHT22;9237;48.590;8.854;2023-05-07T02:52:44;11.10;99.90
18225;DHT22;9237;48.590;8.854;2023-05-07T02:55:10;11.20;99.90
18225;DHT22;9237;48.590;8.854;2023-05-07T02:57:37;11.10;99.90
18225;DHT22;9237;48.590;8.854;2023-05-07T03:00:11;11.10;99.90
18225;DHT22;9237;48.590;8.854;2023-05-07T03:02:38;11.00;99.90
18225;DHT22;9237;48.590;8.854;2023-05-07T03:05:06;11.10;99.90
18225;DHT22;9237;48.590;8.854;2023-05-07T03:07:34;10.90;99.90
18225;DHT22;9237;48.590;8.854;2023-05-07T03:10:01;10.80;99.90
18225;DHT22;9237;48.590;8.854;2023-05-07T03:12:28;10.60;99.90
18225;DHT22;9237;48.590;8.854;2023-05-07T03:14:55;10.50;99.90
18225;DHT22;9237;48.590;8.854;2023-05-07T03:17:22;10.30;99.90
18225;DHT22;9237;48.590;8.854;2023-05-07T03:19:49;10.30;99.90
18225;DHT22;9237;48.590;8.854;2023-05-07T03:22:15;10.40;99.90
18225;DHT22;9237;48.590;8.854;2023-05-07T03:24:43;10.40;99.90
18225;DHT22;9237;48.590;8.854;2023-05-07T03:27:10;10.40;99.90
18225;DHT22;9237;48.590;8.854;2023-05-07T03:29:37;10.30;99.90
18225;DHT22;9237;48.590;8.854;2023-05-07T03:32:04;10.20;99.90
18225;DHT22;9237;48.590;8.854;2023-05-07T03:34:31;10.20;99.90
18225;DHT22;9237;48.590;8.854;2023-05-07T03:36:58;10.50;99.90
18225;DHT22;9237;48.590;8.854;2023-05-07T03:39:25;10.20;99.90
18225;DHT22;9237;48.590;8.854;2023-05-07T03:41:53;10.20;99.90
18225;DHT22;9237;48.590;8.854;2023-05-07T03:44:20;10.00;99.90
18225;DHT22;9237;48.590;8.854;2023-05-07T03:46:47;9.80;99.90
18225;DHT22;9237;48.590;8.854;2023-05-07T03:49:13;9.70;99.90
18225;DHT22;9237;48.590;8.854;2023-05-07T03:51:40;9.60;99.90
18225;DHT22;9237;48.590;8.854;2023-05-07T03:54:07;9.50;99.90
18225;DHT22;9237;48.590;8.854;2023-05-07T03:56:34;9.50;99.90
18225;DHT22;9237;48.590;8.854;2023-05-07T03:59:02;9.50;99.90
18225;DHT22;9237;48.590;8.854;2023-05-07T04:01:29;9.40;99.90
18225;DHT22;9237;48.590;8.854;2023-05-07T04:03:56;9.30;99.90
18225;DHT22;9237;48.590;8.854;2023-05-07T04:06:24;9.40;99.90
18225;DHT22;9237;48.590;8.854;2023-05-07T04:08:50;9.40;99.90
18225;DHT22;9237;48.590;8.854;2023-05-07T04:11:17;9.40;99.90
18225;DHT22;9237;48.590;8.854;2023-05-07T04:13:44;9.30;99.90
18225;DHT22;9237;48.590;8.854;2023-05-07T04:16:12;9.30;99.90
18225;DHT22;9237;48.590;8.854;2023-05-07T04:18:39;9.20;99.90
18225;DHT22;9237;48.590;8.854;2023-05-07T04:21:06;9.40;99.90
18225;DHT22;9237;48.590;8.854;2023-05-07T04:23:40;9.10;99.90
18225;DHT22;9237;48.590;8.854;2023-05-07T04:26:07;9.10;99.90
18225;DHT22;9237;48.590;8.854;2023-05-07T04:28:34;9.10;99.90
18225;DHT22;9237;48.590;8.854;2023-05-07T04:31:01;9.10;99.90
18225;DHT22;9237;48.590;8.854;2023-05-07T04:33:29;9.20;99.90
18225;DHT22;9237;48.590;8.854;2023-05-07T04:35:56;9.20;99.90
18225;DHT22;9237;48.590;8.854;2023-05-07T04:38:22;9.20;99.90
18225;DHT22;9237;48.590;8.854;2023-05-07T04:40:49;9.30;99.90
18225;DHT22;9237;48.590;8.854;2023-05-07T04:43:16;9.30;99.90
18225;DHT22;9237;48.590;8.854;2023-05-07T04:45:43;9.50;99.90
18225;DHT22;9237;48.590;8.854;2023-05-07T04:48:10;9.80;99.90
18225;DHT22;9237;48.590;8.854;2023-05-07T04:50:38;9.90;99.90
18225;DHT22;9237;48.590;8.854;2023-05-07T04:53:05;9.90;99.90
18225;DHT22;9237;48.590;8.854;2023-05-07T04:55:32;10.00;99.90
18225;DHT22;9237;48.590;8.854;2023-05-07T04:57:59;10.20;99.90
18225;DHT22;9237;48.590;8.854;2023-05-07T05:00:26;10.40;99.90
18225;DHT22;9237;48.590;8.854;2023-05-07T05:02:53;10.60;99.90
18225;DHT22;9237;48.590;8.854;2023-05-07T05:05:20;10.60;99.90
18225;DHT22;9237;48.590;8.854;2023-05-07T05:07:48;10.70;99.90
18225;DHT22;9237;48.590;8.854;2023-05-07T05:10:17;10.90;99.90
18225;DHT22;9237;48.590;8.854;2023-05-07T05:12:44;11.20;99.90
18225;DHT22;9237;48.590;8.854;2023-05-07T05:15:11;11.40;99.90
18225;DHT22;9237;48.590;8.854;2023-05-07T05:17:38;11.60;99.90
18225;DHT22;9237;48.590;8.854;2023-05-07T05:20:06;11.90;99.90
18225;DHT22;9237;48.590;8.854;2023-05-07T05:22:33;12.20;99.90
18225;DHT22;9237;48.590;8.854;2023-05-07T05:25:01;12.50;99.90
18225;DHT22;9237;48.590;8.854;2023-05-07T05:27:28;12.90;99.90
18225;DHT22;9237;48.590;8.854;2023-05-07T05:29:55;13.40;99.90
18225;DHT22;9237;48.590;8.854;2023-05-07T05:32:22;14.00;99.90
18225;DHT22;9237;48.590;8.854;2023-05-07T05:34:49;14.50;99.90
18225;DHT22;9237;48.590;8.854;2023-05-07T05:37:16;15.00;99.90
18225;DHT22;9237;48.590;8.854;2023-05-07T05:39:43;15.40;99.90
18225;DHT22;9237;48.590;8.854;2023-05-07T05:42:12;15.60;99.90
18225;DHT22;9237;48.590;8.854;2023-05-07T05:44:38;15.80;99.90
18225;DHT22;9237;48.590;8.854;2023-05-07T05:47:05;15.90;99.90
18225;DHT22;9237;48.590;8.854;2023-05-07T05:49:32;16.00;99.90
18225;DHT22;9237;48.590;8.854;2023-05-07T05:51:59;16.20;99.90
18225;DHT22;9237;48.590;8.854;2023-05-07T05:54:26;16.30;99.90
18225;DHT22;9237;48.590;8.854;2023-05-07T05:56:53;16.40;99.90
18225;DHT22;9237;48.590;8.854;2023-05-07T05:59:21;16.40;99.90
18225;DHT22;9237;48.590;8.854;2023-05-07T06:01:48;16.30;99.90
18225;DHT22;9237;48.590;8.854;2023-05-07T06:04:15;16.20;99.90
18225;DHT22;9237;48.590;8.854;2023-05-07T06:06:42;16.00;99.90
18225;DHT22;9237;48.590;8.854;2023-05-07T06:09:09;15.80;99.90
18225;DHT22;9237;48.590;8.854;2023-05-07T06:11:36;15.90;99.90
18225;DHT22;9237;48.590;8.854;2023-05-07T06:14:03;15.70;99.90
18225;DHT22;9237;48.590;8.854;2023-05-07T06:16:31;15.90;99.90
18225;DHT22;9237;48.590;8.854;2023-05-07T06:18:58;15.90;99.90
18225;DHT22;9237;48.590;8.854;2023-05-07T06:21:25;16.10;99.90
18225;DHT22;9237;48.590;8.854;2023-05-07T06:23:51;16.10;99.90
18225;DHT22;9237;48.590;8.854;2023-05-07T06:26:20;16.30;99.90
18225;DHT22;9237;48.590;8.854;2023-05-07T06:28:47;16.50;99.90
18225;DHT22;9237;48.590;8.854;2023-05-07T06:31:14;16.70;99.90
18225;DHT22;9237;48.590;8.854;2023-05-07T06:33:43;17.10;99.90
18225;DHT22;9237;48.590;8.854;2023-05-07T06:36:10;17.40;99.90
18225;DHT22;9237;48.590;8.854;2023-05-07T06:38:36;17.50;99.90
18225;DHT22;9237;48.590;8.854;2023-05-07T06:41:05;17.40;99.90
18225;DHT22;9237;48.590;8.854;2023-05-07T06:43:31;17.20;99.90
18225;DHT22;9237;48.590;8.854;2023-05-07T06:45:58;17.30;99.90
18225;DHT22;9237;48.590;8.854;2023-05-07T06:48:25;17.40;99.90
18225;DHT22;9237;48.590;8.854;2023-05-07T06:50:53;17.40;99.90
18225;DHT22;9237;48.590;8.854;2023-05-07T06:53:21;17.50;99.90
18225;DHT22;9237;48.590;8.854;2023-05-07T06:55:48;17.60;99.90
18225;DHT22;9237;48.590;8.854;2023-05-07T06:58:15;18.00;99.90
18225;DHT22;9237;48.590;8.854;2023-05-07T07:00:41;18.30;99.90
18225;DHT22;9237;48.590;8.854;2023-05-07T07:03:08;18.60;99.90
18225;DHT22;9237;48.590;8.854;2023-05-07T07:05:35;19.00;99.90
18225;DHT22;9237;48.590;8.854;2023-05-07T07:08:04;19.60;99.90
18225;DHT22;9237;48.590;8.854;2023-05-07T07:10:31;19.90;99.90
18225;DHT22;9237;48.590;8.854;2023-05-07T07:12:57;20.30;99.90
18225;DHT22;9237;48.590;8.854;2023-05-07T07:15:24;20.50;99.90
18225;DHT22;9237;48.590;8.854;2023-05-07T07:17:51;19.90;99.90
18225;DHT22;9237;48.590;8.854;2023-05-07T07:20:18;20.00;99.90
18225;DHT22;9237;48.590;8.854;2023-05-07T07:22:45;19.80;99.90
18225;DHT22;9237;48.590;8.854;2023-05-07T07:25:13;20.00;99.90
18225;DHT22;9237;48.590;8.854;2023-05-07T07:27:40;19.90;99.90
18225;DHT22;9237;48.590;8.854;2023-05-07T07:30:07;19.50;99.90
18225;DHT22;9237;48.590;8.854;2023-05-07T07:32:34;19.50;99.90
18225;DHT22;9237;48.590;8.854;2023-05-07T07:35:01;19.10;99.90
18225;DHT22;9237;48.590;8.854;2023-05-07T07:37:28;19.20;99.90
18225;DHT22;9237;48.590;8.854;2023-05-07T07:39:55;19.30;99.90
18225;DHT22;9237;48.590;8.854;2023-05-07T07:42:23;19.20;99.90
18225;DHT22;9237;48.590;8.854;2023-05-07T07:44:50;19.00;99.90
18225;DHT22;9237;48.590;8.854;2023-05-07T07:47:17;19.10;99.90
18225;DHT22;9237;48.590;8.854;2023-05-07T07:49:44;19.80;99.90
18225;DHT22;9237;48.590;8.854;2023-05-07T07:52:10;20.40;99.90
18225;DHT22;9237;48.590;8.854;2023-05-07T07:54:37;21.10;99.90
18225;DHT22;9237;48.590;8.854;2023-05-07T07:57:05;21.90;99.90
18225;DHT22;9237;48.590;8.854;2023-05-07T07:59:33;22.60;99.90
18225;DHT22;9237;48.590;8.854;2023-05-07T08:02:00;23.10;99.90
18225;DHT22;9237;48.590;8.854;2023-05-07T08:04:26;23.40;99.90
18225;DHT22;9237;48.590;8.854;2023-05-07T08:06:53;23.40;98.00
18225;DHT22;9237;48.590;8.854;2023-05-07T08:09:21;22.70;97.60
18225;DHT22;9237;48.590;8.854;2023-05-07T08:11:48;22.50;98.20
18225;DHT22;9237;48.590;8.854;2023-05-07T08:14:15;22.20;98.00
18225;DHT22;9237;48.590;8.854;2023-05-07T08:16:43;22.30;98.30
18225;DHT22;9237;48.590;8.854;2023-05-07T08:19:10;22.90;98.40
18225;DHT22;9237;48.590;8.854;2023-05-07T08:21:39;23.30;98.70
18225;DHT22;9237;48.590;8.854;2023-05-07T08:24:06;23.80;97.20
18225;DHT22;9237;48.590;8.854;2023-05-07T08:26:33;23.80;94.60
18225;DHT22;9237;48.590;8.854;2023-05-07T08:29:01;23.30;94.80
18225;DHT22;9237;48.590;8.854;2023-05-07T08:31:28;23.20;94.90
18225;DHT22;9237;48.590;8.854;2023-05-07T08:33:56;22.80;94.40
18225;DHT22;9237;48.590;8.854;2023-05-07T08:36:23;23.00;95.50
18225;DHT22;9237;48.590;8.854;2023-05-07T08:38:51;23.50;94.60
18225;DHT22;9237;48.590;8.854;2023-05-07T08:41:17;23.90;92.20
18225;DHT22;9237;48.590;8.854;2023-05-07T08:43:47;24.60;92.90
18225;DHT22;9237;48.590;8.854;2023-05-07T08:46:17;25.10;91.40
18225;DHT22;9237;48.590;8.854;2023-05-07T08:48:44;24.70;90.60
18225;DHT22;9237;48.590;8.854;2023-05-07T08:51:15;24.10;91.80
18225;DHT22;9237;48.590;8.854;2023-05-07T08:53:43;24.10;92.10
18225;DHT22;9237;48.590;8.854;2023-05-07T08:56:10;24.00;92.90
18225;DHT22;9237;48.590;8.854;2023-05-07T08:58:38;24.60;92.00
18225;DHT22;9237;48.590;8.854;2023-05-07T09:01:07;25.00;92.80
18225;DHT22;9237;48.590;8.854;2023-05-07T09:03:35;25.20;91.30
18225;DHT22;9237;48.590;8.854;2023-05-07T09:06:03;25.20;89.20
18225;DHT22;9237;48.590;8.854;2023-05-07T09:08:32;25.40;88.10
18225;DHT22;9237;48.590;8.854;2023-05-07T09:11:00;25.80;87.70
18225;DHT22;9237;48.590;8.854;2023-05-07T09:13:27;26.20;86.80
18225;DHT22;9237;48.590;8.854;2023-05-07T09:15:54;26.40;84.50
18225;DHT22;9237;48.590;8.854;2023-05-07T09:18:21;26.80;85.40
18225;DHT22;9237;48.590;8.854;2023-05-07T09:20:49;27.10;81.40
18225;DHT22;9237;48.590;8.854;2023-05-07T09:23:17;27.10;82.00
18225;DHT22;9237;48.590;8.854;2023-05-07T09:25:45;27.00;82.90
18225;DHT22;9237;48.590;8.854;2023-05-07T09:28:12;26.80;81.40
18225;DHT22;9237;48.590;8.854;2023-05-07T09:30:38;26.80;83.00
18225;DHT22;9237;48.590;8.854;2023-05-07T09:33:05;27.10;82.40
18225;DHT22;9237;48.590;8.854;2023-05-07T09:35:32;27.80;78.40
18225;DHT22;9237;48.590;8.854;2023-05-07T09:38:00;27.60;78.50
18225;DHT22;9237;48.590;8.854;2023-05-07T09:40:29;27.30;79.00
18225;DHT22;9237;48.590;8.854;2023-05-07T09:43:09;27.70;77.60
18225;DHT22;9237;48.590;8.854;2023-05-07T09:45:36;27.60;78.10
18225;DHT22;9237;48.590;8.854;2023-05-07T09:48:05;27.40;76.80
18225;DHT22;9237;48.590;8.854;2023-05-07T09:50:36;27.20;77.10
18225;DHT22;9237;48.590;8.854;2023-05-07T09:53:03;27.10;74.60
18225;DHT22;9237;48.590;8.854;2023-05-07T09:55:30;27.10;78.00
18225;DHT22;9237;48.590;8.854;2023-05-07T09:57:59;27.30;77.70
18225;DHT22;9237;48.590;8.854;2023-05-07T10:00:28;27.70;76.70
18225;DHT22;9237;48.590;8.854;2023-05-07T10:02:56;27.60;72.20
18225;DHT22;9237;48.590;8.854;2023-05-07T10:05:24;27.40;74.70
18225;DHT22;9237;48.590;8.854;2023-05-07T10:07:53;26.80;77.00
18225;DHT22;9237;48.590;8.854;2023-05-07T10:10:21;26.70;75.90
18225;DHT22;9237;48.590;8.854;2023-05-07T10:12:48;27.20;75.70
18225;DHT22;9237;48.590;8.854;2023-05-07T10:15:17;27.60;75.20
18225;DHT22;9237;48.590;8.854;2023-05-07T10:17:45;28.00;73.00
18225;DHT22;9237;48.590;8.854;2023-05-07T10:20:12;28.60;70.30
18225;DHT22;9237;48.590;8.854;2023-05-07T10:22:41;29.10;69.70
18225;DHT22;9237;48.590;8.854;2023-05-07T10:25:14;28.60;68.50
18225;DHT22;9237;48.590;8.854;2023-05-07T10:27:42;28.80;70.10
18225;DHT22;9237;48.590;8.854;2023-05-07T10:30:18;28.30;68.40
18225;DHT22;9237;48.590;8.854;2023-05-07T10:32:49;28.60;71.90
18225;DHT22;9237;48.590;8.854;2023-05-07T10:35:20;29.50;71.40
18225;DHT22;9237;48.590;8.854;2023-05-07T10:37:48;29.70;67.90
18225;DHT22;9237;48.590;8.854;2023-05-07T10:40:15;30.10;65.90
18225;DHT22;9237;48.590;8.854;2023-05-07T10:42:58;29.30;66.20
18225;DHT22;9237;48.590;8.854;2023-05-07T10:45:28;28.50;65.20
18225;DHT22;9237;48.590;8.854;2023-05-07T10:48:12;29.00;66.30
18225;DHT22;9237;48.590;8.854;2023-05-07T10:50:40;29.30;65.10
18225;DHT22;9237;48.590;8.854;2023-05-07T10:53:23;29.20;62.10
18225;DHT22;9237;48.590;8.854;2023-05-07T10:56:24;28.90;61.80
18225;DHT22;9237;48.590;8.854;2023-05-07T10:58:52;27.80;63.80
18225;DHT22;9237;48.590;8.854;2023-05-07T11:01:52;28.20;65.50
18225;DHT22;9237;48.590;8.854;2023-05-07T11:04:19;28.90;63.50
18225;DHT22;9237;48.590;8.854;2023-05-07T11:10:02;30.00;60.50
18225;DHT22;9237;48.590;8.854;2023-05-07T11:12:52;29.40;64.50
18225;DHT22;9237;48.590;8.854;2023-05-07T11:15:38;28.70;65.00
18225;DHT22;9237;48.590;8.854;2023-05-07T11:18:09;27.90;64.50
18225;DHT22;9237;48.590;8.854;2023-05-07T11:20:53;27.40;68.40
18225;DHT22;9237;48.590;8.854;2023-05-07T11:26:43;26.60;70.50
18225;DHT22;9237;48.590;8.854;2023-05-07T11:29:11;26.00;70.80
18225;DHT22;9237;48.590;8.854;2023-05-07T11:31:38;25.80;72.90
18225;DHT22;9237;48.590;8.854;2023-05-07T11:34:08;25.40;73.10
18225;DHT22;9237;48.590;8.854;2023-05-07T11:36:37;25.10;74.00
18225;DHT22;9237;48.590;8.854;2023-05-07T11:39:23;24.60;73.80
18225;DHT22;9237;48.590;8.854;2023-05-07T11:41:51;24.40;76.40
18225;DHT22;9237;48.590;8.854;2023-05-07T11:44:17;24.10;77.40
18225;DHT22;9237;48.590;8.854;2023-05-07T11:46:45;24.00;75.90
18225;DHT22;9237;48.590;8.854;2023-05-07T11:49:13;23.90;73.80
18225;DHT22;9237;48.590;8.854;2023-05-07T11:51:40;23.70;76.10
18225;DHT22;9237;48.590;8.854;2023-05-07T11:54:08;23.00;79.10
18225;DHT22;9237;48.590;8.854;2023-05-07T11:56:37;21.80;81.40
18225;DHT22;9237;48.590;8.854;2023-05-07T11:59:04;21.10;85.10
18225;DHT22;9237;48.590;8.854;2023-05-07T12:01:31;20.50;85.80
18225;DHT22;9237;48.590;8.854;2023-05-07T12:03:58;20.10;87.10
18225;DHT22;9237;48.590;8.854;2023-05-07T12:06:26;19.80;88.40
18225;DHT22;9237;48.590;8.854;2023-05-07T12:08:53;19.50;90.40
18225;DHT22;9237;48.590;8.854;2023-05-07T12:11:23;19.30;91.40
18225;DHT22;9237;48.590;8.854;2023-05-07T12:13:50;19.20;92.20
18225;DHT22;9237;48.590;8.854;2023-05-07T12:16:17;19.10;93.00
18225;DHT22;9237;48.590;8.854;2023-05-07T12:18:45;19.00;93.00
18225;DHT22;9237;48.590;8.854;2023-05-07T12:21:12;18.90;93.60
18225;DHT22;9237;48.590;8.854;2023-05-07T12:23:41;18.90;93.00
18225;DHT22;9237;48.590;8.854;2023-05-07T12:26:08;19.00;93.10
18225;DHT22;9237;48.590;8.854;2023-05-07T12:28:38;18.90;93.10
18225;DHT22;9237;48.590;8.854;2023-05-07T12:31:05;18.90;93.20
18225;DHT22;9237;48.590;8.854;2023-05-07T12:33:33;18.80;93.70
18225;DHT22;9237;48.590;8.854;2023-05-07T12:36:04;18.80;94.60
18225;DHT22;9237;48.590;8.854;2023-05-07T12:38:35;18.70;95.00
18225;DHT22;9237;48.590;8.854;2023-05-07T12:41:05;18.70;95.60
18225;DHT22;9237;48.590;8.854;2023-05-07T12:43:32;18.60;96.30
18225;DHT22;9237;48.590;8.854;2023-05-07T12:46:01;18.60;96.20
18225;DHT22;9237;48.590;8.854;2023-05-07T12:48:28;18.60;97.20
18225;DHT22;9237;48.590;8.854;2023-05-07T12:50:56;18.50;96.80
18225;DHT22;9237;48.590;8.854;2023-05-07T12:53:24;18.30;98.30
18225;DHT22;9237;48.590;8.854;2023-05-07T12:55:52;18.00;99.90
18225;DHT22;9237;48.590;8.854;2023-05-07T12:58:26;17.60;99.90
18225;DHT22;9237;48.590;8.854;2023-05-07T13:00:53;17.20;99.90
18225;DHT22;9237;48.590;8.854;2023-05-07T13:03:25;16.80;99.90
18225;DHT22;9237;48.590;8.854;2023-05-07T13:05:52;16.30;99.90
18225;DHT22;9237;48.590;8.854;2023-05-07T13:08:27;15.70;99.90
18225;DHT22;9237;48.590;8.854;2023-05-07T13:10:54;15.20;99.90
18225;DHT22;9237;48.590;8.854;2023-05-07T13:13:22;15.00;99.90
18225;DHT22;9237;48.590;8.854;2023-05-07T13:15:49;14.80;99.90
18225;DHT22;9237;48.590;8.854;2023-05-07T13:18:16;14.60;99.90
18225;DHT22;9237;48.590;8.854;2023-05-07T13:20:43;14.30;99.90
18225;DHT22;9237;48.590;8.854;2023-05-07T13:23:10;14.20;99.90
18225;DHT22;9237;48.590;8.854;2023-05-07T13:25:36;14.20;99.90
18225;DHT22;9237;48.590;8.854;2023-05-07T13:28:03;14.20;99.90
18225;DHT22;9237;48.590;8.854;2023-05-07T13:30:31;14.20;99.90
18225;DHT22;9237;48.590;8.854;2023-05-07T13:32:58;14.20;99.90
18225;DHT22;9237;48.590;8.854;2023-05-07T13:35:25;14.10;99.90
18225;DHT22;9237;48.590;8.854;2023-05-07T13:37:52;14.10;99.90
18225;DHT22;9237;48.590;8.854;2023-05-07T13:40:20;14.10;99.90
18225;DHT22;9237;48.590;8.854;2023-05-07T13:42:47;14.10;99.90
18225;DHT22;9237;48.590;8.854;2023-05-07T13:45:14;14.10;99.90
18225;DHT22;9237;48.590;8.854;2023-05-07T13:47:42;14.00;99.90
18225;DHT22;9237;48.590;8.854;2023-05-07T13:50:10;14.10;99.90
18225;DHT22;9237;48.590;8.854;2023-05-07T13:52:39;14.20;99.90
18225;DHT22;9237;48.590;8.854;2023-05-07T13:55:07;14.20;99.90
18225;DHT22;9237;48.590;8.854;2023-05-07T13:57:33;14.30;99.90
18225;DHT22;9237;48.590;8.854;2023-05-07T14:00:00;14.30;99.90
18225;DHT22;9237;48.590;8.854;2023-05-07T14:02:27;14.30;99.90
18225;DHT22;9237;48.590;8.854;2023-05-07T14:04:55;14.30;99.90
18225;DHT22;9237;48.590;8.854;2023-05-07T14:07:22;14.30;99.90
18225;DHT22;9237;48.590;8.854;2023-05-07T14:09:49;14.50;99.90
18225;DHT22;9237;48.590;8.854;2023-05-07T14:12:15;14.60;99.90
18225;DHT22;9237;48.590;8.854;2023-05-07T14:14:42;14.70;99.90
18225;DHT22;9237;48.590;8.854;2023-05-07T14:17:10;14.70;99.90
18225;DHT22;9237;48.590;8.854;2023-05-07T14:19:37;14.70;99.90
18225;DHT22;9237;48.590;8.854;2023-05-07T14:22:05;14.70;99.90
18225;DHT22;9237;48.590;8.854;2023-05-07T14:24:32;14.70;99.90
18225;DHT22;9237;48.590;8.854;2023-05-07T14:26:59;14.60;99.90
18225;DHT22;9237;48.590;8.854;2023-05-07T14:29:27;14.70;99.90
18225;DHT22;9237;48.590;8.854;2023-05-07T14:31:54;14.70;99.90
18225;DHT22;9237;48.590;8.854;2023-05-07T14:34:21;14.70;99.90
18225;DHT22;9237;48.590;8.854;2023-05-07T14:36:47;14.70;99.90
18225;DHT22;9237;48.590;8.854;2023-05-07T14:39:16;14.90;99.90
18225;DHT22;9237;48.590;8.854;2023-05-07T14:41:43;15.10;99.90
18225;DHT22;9237;48.590;8.854;2023-05-07T14:44:09;15.30;99.90
18225;DHT22;9237;48.590;8.854;2023-05-07T14:46:36;15.20;99.90
18225;DHT22;9237;48.590;8.854;2023-05-07T14:49:03;15.20;99.90
18225;DHT22;9237;48.590;8.854;2023-05-07T14:51:30;15.20;99.90
18225;DHT22;9237;48.590;8.854;2023-05-07T14:53:56;15.10;99.90
18225;DHT22;9237;48.590;8.854;2023-05-07T14:56:24;15.20;99.90
18225;DHT22;9237;48.590;8.854;2023-05-07T14:58:51;15.40;99.90
18225;DHT22;9237;48.590;8.854;2023-05-07T15:01:19;15.50;99.90
18225;DHT22;9237;48.590;8.854;2023-05-07T15:03:46;15.70;99.90
18225;DHT22;9237;48.590;8.854;2023-05-07T15:06:13;15.90;99.90
18225;DHT22;9237;48.590;8.854;2023-05-07T15:08:40;16.00;99.90
18225;DHT22;9237;48.590;8.854;2023-05-07T15:11:06;16.20;99.90
18225;DHT22;9237;48.590;8.854;2023-05-07T15:13:35;16.50;99.90
18225;DHT22;9237;48.590;8.854;2023-05-07T15:16:01;16.70;99.90
18225;DHT22;9237;48.590;8.854;2023-05-07T15:18:28;16.90;99.90
18225;DHT22;9237;48.590;8.854;2023-05-07T15:20:55;17.10;99.90
18225;DHT22;9237;48.590;8.854;2023-05-07T15:23:23;17.40;99.90
18225;DHT22;9237;48.590;8.854;2023-05-07T15:25:50;17.80;99.90
18225;DHT22;9237;48.590;8.854;2023-05-07T15:28:16;18.00;99.90
18225;DHT22;9237;48.590;8.854;2023-05-07T15:30:45;18.10;99.90
18225;DHT22;9237;48.590;8.854;2023-05-07T15:33:11;18.30;99.90
18225;DHT22;9237;48.590;8.854;2023-05-07T15:35:38;18.40;99.90
18225;DHT22;9237;48.590;8.854;2023-05-07T15:38:05;18.30;99.90
18225;DHT22;9237;48.590;8.854;2023-05-07T15:40:34;18.30;99.90
18225;DHT22;9237;48.590;8.854;2023-05-07T15:43:03;18.30;99.90
18225;DHT22;9237;48.590;8.854;2023-05-07T15:45:30;18.10;99.90
18225;DHT22;9237;48.590;8.854;2023-05-07T15:47:58;18.00;99.90
18225;DHT22;9237;48.590;8.854;2023-05-07T15:50:24;17.90;99.90
18225;DHT22;9237;48.590;8.854;2023-05-07T15:52:51;17.80;99.90
18225;DHT22;9237;48.590;8.854;2023-05-07T15:55:18;17.80;99.90
18225;DHT22;9237;48.590;8.854;2023-05-07T15:57:45;17.70;99.90